sensor_id;sensor_type;location;lat;lon;timestamp;pressure;altitude;pressure_sealevel;temperature;humidity
75192;BME280;63771;52.580;9.734;2023-03-23T00:02:14;100080.81;;;11.29;82.30
75192;BME280;63771;52.580;9.734;2023-03-23T00:04:39;100079.69;;;11.26;82.40
75192;BME280;63771;52.580;9.734;2023-03-23T00:07:05;100072.59;;;11.21;82.84
75192;BME280;63771;52.580;9.734;2023-03-23T00:09:30;100079.94;;;11.17;83.29
75192;BME280;63771;52.580;9.734;2023-03-23T00:12:00;100074.66;;;11.14;83.37
75192;BME280;63771;52.580;9.734;2023-03-23T00:14:31;100070.09;;;11.10;83.99
75192;BME280;63771;52.580;9.734;2023-03-23T00:17:09;100070.88;;;11.09;84.46
75192;BME280;63771;52.580;9.734;2023-03-23T00:19:37;100068.09;;;11.06;84.34
75192;BME280;63771;52.580;9.734;2023-03-23T00:22:14;100065.47;;;11.04;84.33
75192;BME280;63771;52.580;9.734;2023-03-23T00:24:40;100066.91;;;11.01;84.99
75192;BME280;63771;52.580;9.734;2023-03-23T00:27:05;100065.22;;;11.01;85.27
75192;BME280;63771;52.580;9.734;2023-03-23T00:29:31;100066.91;;;11.01;85.38
75192;BME280;63771;52.580;9.734;2023-03-23T00:31:57;100060.03;;;11.00;85.53
75192;BME280;63771;52.580;9.734;2023-03-23T00:34:23;100054.03;;;10.99;85.65
75192;BME280;63771;52.580;9.734;2023-03-23T00:36:52;100046.38;;;10.99;85.57
75192;BME280;63771;52.580;9.734;2023-03-23T00:39:18;100048.06;;;10.98;85.76
75192;BME280;63771;52.580;9.734;2023-03-23T00:41:45;100036.75;;;10.95;86.23
75192;BME280;63771;52.580;9.734;2023-03-23T00:44:12;100042.72;;;10.95;86.28
75192;BME280;63771;52.580;9.734;2023-03-23T00:46:43;100040.09;;;10.94;86.69
75192;BME280;63771;52.580;9.734;2023-03-23T00:49:13;100040.09;;;10.94;86.80
75192;BME280;63771;52.580;9.734;2023-03-23T00:51:40;100037.44;;;10.92;87.02
75192;BME280;63771;52.580;9.734;2023-03-23T00:54:05;100038.22;;;10.91;87.22
75192;BME280;63771;52.580;9.734;2023-03-23T00:56:31;100025.47;;;10.91;87.42
75192;BME280;63771;52.580;9.734;2023-03-23T00:58:56;100040.63;;;10.90;87.13
75192;BME280;63771;52.580;9.734;2023-03-23T01:01:21;100041.53;;;10.90;87.41
75192;BME280;63771;52.580;9.734;2023-03-23T01:03:47;100030.56;;;10.91;87.18
75192;BME280;63771;52.580;9.734;2023-03-23T01:06:12;100030.56;;;10.91;87.34
75192;BME280;63771;52.580;9.734;2023-03-23T01:08:39;100029.00;;;10.93;87.53
75192;BME280;63771;52.580;9.734;2023-03-23T01:11:12;100033.31;;;10.94;87.49
75192;BME280;63771;52.580;9.734;2023-03-23T01:13:37;100038.41;;;10.94;87.71
75192;BME280;63771;52.580;9.734;2023-03-23T01:16:03;100030.75;;;10.94;87.71
75192;BME280;63771;52.580;9.734;2023-03-23T01:18:28;100025.75;;;10.96;87.68
75192;BME280;63771;52.580;9.734;2023-03-23T01:20:53;100010.34;;;10.94;88.10
75192;BME280;63771;52.580;9.734;2023-03-23T01:23:19;100018.78;;;10.93;88.16
75192;BME280;63771;52.580;9.734;2023-03-23T01:25:44;100010.16;;;10.91;88.40
75192;BME280;63771;52.580;9.734;2023-03-23T01:28:10;100008.56;;;10.93;88.47
75192;BME280;63771;52.580;9.734;2023-03-23T01:30:36;99997.56;;;10.94;88.75
75192;BME280;63771;52.580;9.734;2023-03-23T01:33:02;100000.91;;;10.93;88.38
75192;BME280;63771;52.580;9.734;2023-03-23T01:35:27;99993.91;;;10.91;88.60
75192;BME280;63771;52.580;9.734;2023-03-23T01:37:53;99990.63;;;10.92;88.73
75192;BME280;63771;52.580;9.734;2023-03-23T01:40:19;99989.72;;;10.91;88.83
75192;BME280;63771;52.580;9.734;2023-03-23T01:42:45;99993.03;;;10.90;88.94
75192;BME280;63771;52.580;9.734;2023-03-23T01:48:07;99982.63;;;10.87;89.12
75192;BME280;63771;52.580;9.734;2023-03-23T01:50:42;99973.22;;;10.86;89.19
75192;BME280;63771;52.580;9.734;2023-03-23T01:53:10;99977.63;;;10.89;89.13
75192;BME280;63771;52.580;9.734;2023-03-23T01:55:37;99973.31;;;10.88;89.21
75192;BME280;63771;52.580;9.734;2023-03-23T01:58:06;99977.44;;;10.86;89.35
75192;BME280;63771;52.580;9.734;2023-03-23T02:00:32;99978.31;;;10.86;89.20
75192;BME280;63771;52.580;9.734;2023-03-23T02:03:00;99987.75;;;10.87;89.26
75192;BME280;63771;52.580;9.734;2023-03-23T02:05:31;99990.28;;;10.87;89.46
75192;BME280;63771;52.580;9.734;2023-03-23T02:08:04;99983.63;;;10.89;89.53
75192;BME280;63771;52.580;9.734;2023-03-23T02:10:32;99986.25;;;10.91;89.23
75192;BME280;63771;52.580;9.734;2023-03-23T02:12:59;99985.38;;;10.90;89.23
75192;BME280;63771;52.580;9.734;2023-03-23T02:15:28;99978.31;;;10.86;89.23
75192;BME280;63771;52.580;9.734;2023-03-23T02:18:06;99975.97;;;10.89;89.40
75192;BME280;63771;52.580;9.734;2023-03-23T02:21:07;99971.53;;;10.87;89.46
75192;BME280;63771;52.580;9.734;2023-03-23T02:23:52;99971.63;;;10.88;89.56
75192;BME280;63771;52.580;9.734;2023-03-23T02:26:36;99969.00;;;10.87;89.76
75192;BME280;63771;52.580;9.734;2023-03-23T02:29:16;99970.66;;;10.86;89.66
75192;BME280;63771;52.580;9.734;2023-03-23T02:34:27;99961.34;;;10.87;89.49
75192;BME280;63771;52.580;9.734;2023-03-23T02:37:01;99962.22;;;10.87;89.43
75192;BME280;63771;52.580;9.734;2023-03-23T02:39:37;99959.56;;;10.86;89.67
75192;BME280;63771;52.580;9.734;2023-03-23T02:42:08;99952.69;;;10.85;89.64
75192;BME280;63771;52.580;9.734;2023-03-23T02:44:36;99934.94;;;10.86;89.35
75192;BME280;63771;52.580;9.734;2023-03-23T02:47:05;99920.28;;;10.84;89.49
75192;BME280;63771;52.580;9.734;2023-03-23T02:49:34;99909.19;;;10.83;89.78
75192;BME280;63771;52.580;9.734;2023-03-23T02:52:11;99917.66;;;10.82;89.70
75192;BME280;63771;52.580;9.734;2023-03-23T02:54:41;99924.28;;;10.80;89.52
75192;BME280;63771;52.580;9.734;2023-03-23T02:57:09;99933.63;;;10.80;90.05
75192;BME280;63771;52.580;9.734;2023-03-23T02:59:35;99930.00;;;10.76;89.94
75192;BME280;63771;52.580;9.734;2023-03-23T03:02:05;99940.19;;;10.76;90.04
75192;BME280;63771;52.580;9.734;2023-03-23T03:04:32;99927.44;;;10.76;89.92
75192;BME280;63771;52.580;9.734;2023-03-23T03:07:15;99916.22;;;10.74;90.14
75192;BME280;63771;52.580;9.734;2023-03-23T03:10:06;99922.13;;;10.73;90.18
75192;BME280;63771;52.580;9.734;2023-03-23T03:16:25;99926.13;;;10.69;90.17
75192;BME280;63771;52.580;9.734;2023-03-23T03:19:00;99916.03;;;10.71;90.23
75192;BME280;63771;52.580;9.734;2023-03-23T03:21:31;99916.91;;;10.71;90.21
75192;BME280;63771;52.580;9.734;2023-03-23T03:24:01;99922.03;;;10.71;90.11
75192;BME280;63771;52.580;9.734;2023-03-23T03:26:28;99916.78;;;10.70;90.30
75192;BME280;63771;52.580;9.734;2023-03-23T03:28:56;99909.75;;;10.66;90.43
75192;BME280;63771;52.580;9.734;2023-03-23T03:31:26;99906.50;;;10.68;90.52
75192;BME280;63771;52.580;9.734;2023-03-23T03:33:53;99903.84;;;10.67;90.33
75192;BME280;63771;52.580;9.734;2023-03-23T03:36:22;99908.16;;;10.68;90.47
75192;BME280;63771;52.580;9.734;2023-03-23T03:38:50;99903.75;;;10.65;90.45
75192;BME280;63771;52.580;9.734;2023-03-23T03:41:17;99925.03;;;10.66;90.42
75192;BME280;63771;52.580;9.734;2023-03-23T03:43:43;99918.19;;;10.65;90.48
75192;BME280;63771;52.580;9.734;2023-03-23T03:46:08;99915.63;;;10.65;90.45
75192;BME280;63771;52.580;9.734;2023-03-23T03:48:34;99897.78;;;10.65;90.16
75192;BME280;63771;52.580;9.734;2023-03-23T03:51:00;99884.78;;;10.62;90.32
75192;BME280;63771;52.580;9.734;2023-03-23T03:53:28;99905.28;;;10.63;90.22
75192;BME280;63771;52.580;9.734;2023-03-23T03:55:54;99912.06;;;10.63;90.31
75192;BME280;63771;52.580;9.734;2023-03-23T03:58:22;99895.78;;;10.61;90.47
75192;BME280;63771;52.580;9.734;2023-03-23T04:00:47;99888.91;;;10.60;90.41
75192;BME280;63771;52.580;9.734;2023-03-23T04:03:13;99880.06;;;10.55;90.61
75192;BME280;63771;52.580;9.734;2023-03-23T04:05:38;99887.91;;;10.58;90.71
75192;BME280;63771;52.580;9.734;2023-03-23T04:08:04;99862.97;;;10.54;90.76
75192;BME280;63771;52.580;9.734;2023-03-23T04:10:31;99873.41;;;10.57;90.37
75192;BME280;63771;52.580;9.734;2023-03-23T04:12:57;99876.72;;;10.56;90.24
75192;BME280;63771;52.580;9.734;2023-03-23T04:15:23;99876.72;;;10.56;90.37
75192;BME280;63771;52.580;9.734;2023-03-23T04:17:48;99872.19;;;10.52;90.63
75192;BME280;63771;52.580;9.734;2023-03-23T04:20:15;99873.31;;;10.55;90.37
75192;BME280;63771;52.580;9.734;2023-03-23T04:22:44;99876.91;;;10.59;90.31
75192;BME280;63771;52.580;9.734;2023-03-23T04:25:11;99876.03;;;10.58;90.42
75192;BME280;63771;52.580;9.734;2023-03-23T04:27:38;99869.88;;;10.55;90.39
75192;BME280;63771;52.580;9.734;2023-03-23T04:30:05;99869.97;;;10.56;90.34
75192;BME280;63771;52.580;9.734;2023-03-23T04:32:31;99855.31;;;10.54;90.43
75192;BME280;63771;52.580;9.734;2023-03-23T04:34:58;99862.31;;;10.56;90.24
75192;BME280;63771;52.580;9.734;2023-03-23T04:37:25;99868.28;;;10.57;90.08
75192;BME280;63771;52.580;9.734;2023-03-23T04:39:54;99869.09;;;10.56;89.47
75192;BME280;63771;52.580;9.734;2023-03-23T04:42:30;99852.34;;;10.48;89.52
75192;BME280;63771;52.580;9.734;2023-03-23T04:44:57;99864.53;;;10.52;89.26
75192;BME280;63771;52.580;9.734;2023-03-23T04:47:24;99869.66;;;10.52;88.78
75192;BME280;63771;52.580;9.734;2023-03-23T04:49:49;99870.75;;;10.55;88.39
75192;BME280;63771;52.580;9.734;2023-03-23T04:52:16;99864.78;;;10.55;88.36
75192;BME280;63771;52.580;9.734;2023-03-23T04:54:41;99856.09;;;10.53;88.10
75192;BME280;63771;52.580;9.734;2023-03-23T04:57:08;99860.31;;;10.52;88.20
75192;BME280;63771;52.580;9.734;2023-03-23T04:59:33;99864.53;;;10.52;87.87
75192;BME280;63771;52.580;9.734;2023-03-23T05:01:59;99854.34;;;10.52;87.83
75192;BME280;63771;52.580;9.734;2023-03-23T05:04:24;99857.69;;;10.51;87.74
75192;BME280;63771;52.580;9.734;2023-03-23T05:06:50;99856.56;;;10.47;87.45
75192;BME280;63771;52.580;9.734;2023-03-23T05:09:16;99864.13;;;10.45;87.50
75192;BME280;63771;52.580;9.734;2023-03-23T05:11:41;99869.13;;;10.44;87.59
75192;BME280;63771;52.580;9.734;2023-03-23T05:14:06;99866.47;;;10.42;87.55
75192;BME280;63771;52.580;9.734;2023-03-23T05:16:32;99877.44;;;10.41;87.12
75192;BME280;63771;52.580;9.734;2023-03-23T05:18:57;99882.78;;;10.44;86.93
75192;BME280;63771;52.580;9.734;2023-03-23T05:21:23;99879.34;;;10.44;86.69
75192;BME280;63771;52.580;9.734;2023-03-23T05:23:48;99871.69;;;10.44;86.86
75192;BME280;63771;52.580;9.734;2023-03-23T05:26:23;99875.88;;;10.43;86.71
75192;BME280;63771;52.580;9.734;2023-03-23T05:28:54;99884.44;;;10.44;86.74
75192;BME280;63771;52.580;9.734;2023-03-23T05:31:20;99882.78;;;10.44;86.68
75192;BME280;63771;52.580;9.734;2023-03-23T05:33:46;99883.53;;;10.43;86.56
75192;BME280;63771;52.580;9.734;2023-03-23T05:36:12;99881.97;;;10.45;86.25
75192;BME280;63771;52.580;9.734;2023-03-23T05:38:41;99875.31;;;10.48;86.47
75192;BME280;63771;52.580;9.734;2023-03-23T05:41:13;99876.19;;;10.48;86.12
75192;BME280;63771;52.580;9.734;2023-03-23T05:43:38;99879.75;;;10.50;86.19
75192;BME280;63771;52.580;9.734;2023-03-23T05:46:04;99875.63;;;10.52;86.01
75192;BME280;63771;52.580;9.734;2023-03-23T05:48:29;99873.16;;;10.54;85.88
75192;BME280;63771;52.580;9.734;2023-03-23T05:50:54;99868.94;;;10.54;86.31
75192;BME280;63771;52.580;9.734;2023-03-23T05:53:20;99870.75;;;10.55;85.87
75192;BME280;63771;52.580;9.734;2023-03-23T05:55:45;99860.22;;;10.51;85.84
75192;BME280;63771;52.580;9.734;2023-03-23T05:58:11;99864.94;;;10.58;85.76
75192;BME280;63771;52.580;9.734;2023-03-23T06:00:37;99866.72;;;10.59;85.68
75192;BME280;63771;52.580;9.734;2023-03-23T06:03:02;99852.44;;;10.61;85.45
75192;BME280;63771;52.580;9.734;2023-03-23T06:05:28;99863.59;;;10.63;85.43
75192;BME280;63771;52.580;9.734;2023-03-23T06:07:54;99851.63;;;10.62;85.48
75192;BME280;63771;52.580;9.734;2023-03-23T06:10:19;99864.00;;;10.69;85.29
75192;BME280;63771;52.580;9.734;2023-03-23T06:12:45;99857.38;;;10.71;85.24
75192;BME280;63771;52.580;9.734;2023-03-23T06:15:10;99855.78;;;10.73;85.39
75192;BME280;63771;52.580;9.734;2023-03-23T06:17:37;99854.22;;;10.75;85.12
75192;BME280;63771;52.580;9.734;2023-03-23T06:20:06;99854.75;;;10.83;85.35
75192;BME280;63771;52.580;9.734;2023-03-23T06:22:37;99855.22;;;10.90;84.78
75192;BME280;63771;52.580;9.734;2023-03-23T06:25:04;99850.66;;;10.98;84.35
75192;BME280;63771;52.580;9.734;2023-03-23T06:27:29;99857.59;;;11.01;84.13
75192;BME280;63771;52.580;9.734;2023-03-23T06:29:55;99862.22;;;11.06;83.54
75192;BME280;63771;52.580;9.734;2023-03-23T06:32:22;99869.31;;;11.10;83.43
75192;BME280;63771;52.580;9.734;2023-03-23T06:34:48;99877.50;;;11.18;83.27
75192;BME280;63771;52.580;9.734;2023-03-23T06:37:13;99883.78;;;11.23;82.96
75192;BME280;63771;52.580;9.734;2023-03-23T06:39:38;99878.75;;;11.24;82.81
75192;BME280;63771;52.580;9.734;2023-03-23T06:42:04;99877.41;;;11.30;82.80
75192;BME280;63771;52.580;9.734;2023-03-23T06:44:33;99868.47;;;11.23;82.40
75192;BME280;63771;52.580;9.734;2023-03-23T06:46:59;99883.59;;;11.33;82.21
75192;BME280;63771;52.580;9.734;2023-03-23T06:49:24;99868.94;;;11.31;82.26
75192;BME280;63771;52.580;9.734;2023-03-23T06:51:50;99870.91;;;11.35;82.29
75192;BME280;63771;52.580;9.734;2023-03-23T06:54:15;99867.66;;;11.37;82.48
75192;BME280;63771;52.580;9.734;2023-03-23T06:56:41;99879.56;;;11.37;82.34
75192;BME280;63771;52.580;9.734;2023-03-23T06:59:06;99878.88;;;11.39;81.39
75192;BME280;63771;52.580;9.734;2023-03-23T07:01:32;99870.72;;;11.45;81.07
75192;BME280;63771;52.580;9.734;2023-03-23T07:03:57;99872.59;;;11.47;80.91
75192;BME280;63771;52.580;9.734;2023-03-23T07:06:23;99876.13;;;11.49;81.47
75192;BME280;63771;52.580;9.734;2023-03-23T07:08:49;99871.91;;;11.50;81.42
75192;BME280;63771;52.580;9.734;2023-03-23T07:11:15;99875.44;;;11.52;81.03
75192;BME280;63771;52.580;9.734;2023-03-23T07:13:41;99890.09;;;11.55;80.73
75192;BME280;63771;52.580;9.734;2023-03-23T07:16:07;99885.16;;;11.58;80.50
75192;BME280;63771;52.580;9.734;2023-03-23T07:18:32;99882.09;;;11.63;80.25
75192;BME280;63771;52.580;9.734;2023-03-23T07:20:58;99866.91;;;11.65;80.21
75192;BME280;63771;52.580;9.734;2023-03-23T07:23:24;99874.06;;;11.70;79.62
75192;BME280;63771;52.580;9.734;2023-03-23T07:25:49;99879.09;;;11.82;79.97
75192;BME280;63771;52.580;9.734;2023-03-23T07:28:15;99874.94;;;11.84;80.47
75192;BME280;63771;52.580;9.734;2023-03-23T07:30:41;99878.00;;;11.92;79.54
75192;BME280;63771;52.580;9.734;2023-03-23T07:33:08;99883.41;;;11.96;79.45
75192;BME280;63771;52.580;9.734;2023-03-23T07:35:34;99882.31;;;12.06;79.58
75192;BME280;63771;52.580;9.734;2023-03-23T07:38:00;99872.53;;;12.14;79.36
75192;BME280;63771;52.580;9.734;2023-03-23T07:40:27;99880.59;;;12.20;78.84
75192;BME280;63771;52.580;9.734;2023-03-23T07:42:54;99885.31;;;12.27;78.67
75192;BME280;63771;52.580;9.734;2023-03-23T07:45:20;99880.38;;;12.30;78.75
75192;BME280;63771;52.580;9.734;2023-03-23T07:47:46;99879.78;;;12.34;78.05
75192;BME280;63771;52.580;9.734;2023-03-23T07:50:11;99888.78;;;12.42;78.24
75192;BME280;63771;52.580;9.734;2023-03-23T07:52:37;99884.06;;;12.48;78.03
75192;BME280;63771;52.580;9.734;2023-03-23T07:55:05;99876.16;;;12.59;78.17
75192;BME280;63771;52.580;9.734;2023-03-23T07:57:31;99880.03;;;12.67;77.28
75192;BME280;63771;52.580;9.734;2023-03-23T07:59:57;99875.53;;;12.77;77.01
75192;BME280;63771;52.580;9.734;2023-03-23T08:02:23;99876.88;;;12.86;77.00
75192;BME280;63771;52.580;9.734;2023-03-23T08:04:49;99879.88;;;12.93;76.46
75192;BME280;63771;52.580;9.734;2023-03-23T08:07:16;99888.13;;;13.02;76.28
75192;BME280;63771;52.580;9.734;2023-03-23T08:09:42;99891.91;;;13.09;74.49
75192;BME280;63771;52.580;9.734;2023-03-23T08:12:08;99892.25;;;13.15;75.16
75192;BME280;63771;52.580;9.734;2023-03-23T08:14:33;99905.25;;;13.18;74.13
75192;BME280;63771;52.580;9.734;2023-03-23T08:16:59;99903.97;;;13.25;74.43
75192;BME280;63771;52.580;9.734;2023-03-23T08:19:25;99911.03;;;13.29;74.57
75192;BME280;63771;52.580;9.734;2023-03-23T08:21:51;99910.34;;;13.31;74.16
75192;BME280;63771;52.580;9.734;2023-03-23T08:24:16;99917.56;;;13.39;73.65
75192;BME280;63771;52.580;9.734;2023-03-23T08:26:42;99918.53;;;13.41;72.59
75192;BME280;63771;52.580;9.734;2023-03-23T08:29:07;99911.84;;;13.43;72.74
75192;BME280;63771;52.580;9.734;2023-03-23T08:31:33;99921.97;;;13.41;73.03
75192;BME280;63771;52.580;9.734;2023-03-23T08:34:04;99933.81;;;13.39;72.39
75192;BME280;63771;52.580;9.734;2023-03-23T08:36:33;99933.13;;;13.27;71.68
75192;BME280;63771;52.580;9.734;2023-03-23T08:38:59;99930.56;;;13.27;72.79
75192;BME280;63771;52.580;9.734;2023-03-23T08:41:25;99918.06;;;13.18;72.37
75192;BME280;63771;52.580;9.734;2023-03-23T08:43:50;99922.13;;;13.15;72.10
75192;BME280;63771;52.580;9.734;2023-03-23T08:46:17;99938.34;;;13.15;73.39
75192;BME280;63771;52.580;9.734;2023-03-23T08:48:44;99942.25;;;13.09;73.44
75192;BME280;63771;52.580;9.734;2023-03-23T08:51:10;99938.72;;;13.06;72.84
75192;BME280;63771;52.580;9.734;2023-03-23T08:53:36;99940.22;;;13.03;73.86
75192;BME280;63771;52.580;9.734;2023-03-23T08:56:06;99941.97;;;13.04;73.23
75192;BME280;63771;52.580;9.734;2023-03-23T08:58:33;99939.31;;;13.02;73.07
75192;BME280;63771;52.580;9.734;2023-03-23T09:00:59;99938.38;;;13.00;73.56
75192;BME280;63771;52.580;9.734;2023-03-23T09:03:25;99949.84;;;13.07;73.23
75192;BME280;63771;52.580;9.734;2023-03-23T09:05:50;99947.28;;;13.07;73.33
75192;BME280;63771;52.580;9.734;2023-03-23T09:08:16;99939.97;;;13.13;73.63
75192;BME280;63771;52.580;9.734;2023-03-23T09:10:42;99931.75;;;13.19;73.33
75192;BME280;63771;52.580;9.734;2023-03-23T09:13:08;99929.41;;;13.22;73.35
75192;BME280;63771;52.580;9.734;2023-03-23T09:15:33;99936.31;;;13.23;72.60
75192;BME280;63771;52.580;9.734;2023-03-23T09:17:58;99932.94;;;13.24;72.96
75192;BME280;63771;52.580;9.734;2023-03-23T09:20:27;99922.00;;;13.26;73.54
75192;BME280;63771;52.580;9.734;2023-03-23T09:22:54;99931.72;;;13.32;72.29
75192;BME280;63771;52.580;9.734;2023-03-23T09:25:22;99928.34;;;13.33;72.65
75192;BME280;63771;52.580;9.734;2023-03-23T09:27:53;99932.41;;;13.29;72.53
75192;BME280;63771;52.580;9.734;2023-03-23T09:30:22;99936.31;;;13.23;71.96
75192;BME280;63771;52.580;9.734;2023-03-23T09:32:48;99937.25;;;13.25;72.08
75192;BME280;63771;52.580;9.734;2023-03-23T09:35:15;99943.38;;;13.27;72.63
75192;BME280;63771;52.580;9.734;2023-03-23T09:37:43;99940.91;;;13.28;72.73
75192;BME280;63771;52.580;9.734;2023-03-23T09:40:15;99942.66;;;13.29;72.86
75192;BME280;63771;52.580;9.734;2023-03-23T09:45:22;99955.19;;;13.40;71.64
75192;BME280;63771;52.580;9.734;2023-03-23T09:48:10;99959.44;;;13.39;71.79
75192;BME280;63771;52.580;9.734;2023-03-23T09:50:41;99954.66;;;13.45;72.36
75192;BME280;63771;52.580;9.734;2023-03-23T09:53:13;99956.63;;;13.49;71.57
75192;BME280;63771;52.580;9.734;2023-03-23T09:55:41;99965.66;;;13.57;71.70
75192;BME280;63771;52.580;9.734;2023-03-23T09:58:26;99962.63;;;13.65;71.77
75192;BME280;63771;52.580;9.734;2023-03-23T10:01:02;99969.38;;;13.63;70.52
75192;BME280;63771;52.580;9.734;2023-03-23T10:03:50;99973.50;;;13.61;70.58
75192;BME280;63771;52.580;9.734;2023-03-23T10:06:18;99977.66;;;13.58;70.43
75192;BME280;63771;52.580;9.734;2023-03-23T10:08:52;99968.09;;;13.56;71.44
75192;BME280;63771;52.580;9.734;2023-03-23T10:11:37;99973.97;;;13.53;71.34
75192;BME280;63771;52.580;9.734;2023-03-23T10:14:30;99977.22;;;13.51;71.56
75192;BME280;63771;52.580;9.734;2023-03-23T10:17:24;99988.44;;;13.53;70.70
75192;BME280;63771;52.580;9.734;2023-03-23T10:22:31;99991.97;;;13.55;70.80
75192;BME280;63771;52.580;9.734;2023-03-23T10:25:15;99987.91;;;13.58;71.72
75192;BME280;63771;52.580;9.734;2023-03-23T10:28:05;99999.06;;;13.59;71.33
75192;BME280;63771;52.580;9.734;2023-03-23T10:30:52;99991.44;;;13.61;71.62
75192;BME280;63771;52.580;9.734;2023-03-23T10:33:44;99997.19;;;13.56;72.33
75192;BME280;63771;52.580;9.734;2023-03-23T10:39:06;100006.66;;;13.57;71.93
75192;BME280;63771;52.580;9.734;2023-03-23T10:41:34;99999.75;;;13.56;71.32
75192;BME280;63771;52.580;9.734;2023-03-23T10:44:00;100002.69;;;13.63;71.96
75192;BME280;63771;52.580;9.734;2023-03-23T10:46:40;100005.69;;;13.70;72.14
75192;BME280;63771;52.580;9.734;2023-03-23T10:49:15;100009.81;;;13.83;70.37
75192;BME280;63771;52.580;9.734;2023-03-23T10:51:46;100009.81;;;13.83;70.41
75192;BME280;63771;52.580;9.734;2023-03-23T10:54:26;100012.38;;;13.83;69.79
75192;BME280;63771;52.580;9.734;2023-03-23T10:56:53;100010.19;;;13.74;69.81
75192;BME280;63771;52.580;9.734;2023-03-23T10:59:21;100010.34;;;13.77;70.54
75192;BME280;63771;52.580;9.734;2023-03-23T11:01:54;100016.34;;;13.78;70.39
75192;BME280;63771;52.580;9.734;2023-03-23T11:04:20;100007.78;;;13.77;69.89
75192;BME280;63771;52.580;9.734;2023-03-23T11:07:10;100021.88;;;13.84;70.15
75192;BME280;63771;52.580;9.734;2023-03-23T11:09:51;100024.59;;;13.57;69.90
75192;BME280;63771;52.580;9.734;2023-03-23T11:12:18;100017.56;;;13.25;71.54
75192;BME280;63771;52.580;9.734;2023-03-23T11:14:44;100001.50;;;13.00;72.97
75192;BME280;63771;52.580;9.734;2023-03-23T11:17:24;100022.66;;;12.69;74.13
75192;BME280;63771;52.580;9.734;2023-03-23T11:19:51;100016.88;;;12.59;74.38
75192;BME280;63771;52.580;9.734;2023-03-23T11:22:27;100016.00;;;12.45;76.14
75192;BME280;63771;52.580;9.734;2023-03-23T11:24:55;100016.81;;;12.44;75.39
75192;BME280;63771;52.580;9.734;2023-03-23T11:27:21;100034.50;;;12.41;76.46
75192;BME280;63771;52.580;9.734;2023-03-23T11:29:54;100045.03;;;12.45;79.15
75192;BME280;63771;52.580;9.734;2023-03-23T11:32:24;100055.19;;;12.17;80.95
75192;BME280;63771;52.580;9.734;2023-03-23T11:34:56;100062.84;;;11.91;83.08
75192;BME280;63771;52.580;9.734;2023-03-23T11:37:35;100060.31;;;11.79;85.22
75192;BME280;63771;52.580;9.734;2023-03-23T11:42:49;100054.66;;;11.58;83.20
75192;BME280;63771;52.580;9.734;2023-03-23T11:45:31;100043.47;;;11.56;82.69
75192;BME280;63771;52.580;9.734;2023-03-23T11:48:19;100062.22;;;11.57;83.02
75192;BME280;63771;52.580;9.734;2023-03-23T11:50:51;100065.34;;;11.53;82.48
75192;BME280;63771;52.580;9.734;2023-03-23T11:56:14;100074.97;;;11.43;82.47
75192;BME280;63771;52.580;9.734;2023-03-23T11:58:41;100064.75;;;11.43;83.96
75192;BME280;63771;52.580;9.734;2023-03-23T12:09:48;100083.50;;;11.19;86.27
75192;BME280;63771;52.580;9.734;2023-03-23T12:12:40;100086.31;;;11.10;87.13
75192;BME280;63771;52.580;9.734;2023-03-23T12:26:57;100060.25;;;11.53;87.40
75192;BME280;63771;52.580;9.734;2023-03-23T12:32:23;100062.31;;;11.83;86.32
75192;BME280;63771;52.580;9.734;2023-03-23T12:35:00;100067.66;;;11.86;84.25
75192;BME280;63771;52.580;9.734;2023-03-23T12:42:48;100088.13;;;12.13;84.31
75192;BME280;63771;52.580;9.734;2023-03-23T12:48:05;100080.09;;;12.33;85.07
75192;BME280;63771;52.580;9.734;2023-03-23T12:50:37;100080.84;;;12.45;83.56
75192;BME280;63771;52.580;9.734;2023-03-23T12:53:20;100084.69;;;12.52;83.71
75192;BME280;63771;52.580;9.734;2023-03-23T12:56:06;100079.47;;;12.64;82.47
75192;BME280;63771;52.580;9.734;2023-03-23T12:58:40;100088.72;;;12.62;81.95
75192;BME280;63771;52.580;9.734;2023-03-23T13:01:12;100088.34;;;12.56;82.13
75192;BME280;63771;52.580;9.734;2023-03-23T13:03:59;100078.69;;;12.51;82.11
75192;BME280;63771;52.580;9.734;2023-03-23T13:06:38;100089.91;;;12.40;81.72
75192;BME280;63771;52.580;9.734;2023-03-23T13:11:43;100096.22;;;12.32;83.09
75192;BME280;63771;52.580;9.734;2023-03-23T13:22:50;100069.91;;;12.21;81.81
75192;BME280;63771;52.580;9.734;2023-03-23T13:25:26;100079.09;;;12.18;81.90
75192;BME280;63771;52.580;9.734;2023-03-23T13:27:57;100086.66;;;12.16;81.50
75192;BME280;63771;52.580;9.734;2023-03-23T13:30:24;100093.03;;;12.10;80.93
75192;BME280;63771;52.580;9.734;2023-03-23T13:32:50;100092.84;;;12.07;80.82
75192;BME280;63771;52.580;9.734;2023-03-23T13:35:17;100090.59;;;12.11;80.72
75192;BME280;63771;52.580;9.734;2023-03-23T13:37:48;100081.03;;;12.09;81.06
75192;BME280;63771;52.580;9.734;2023-03-23T13:40:29;100073.38;;;12.09;81.23
75192;BME280;63771;52.580;9.734;2023-03-23T13:42:57;100086.38;;;12.12;81.71
75192;BME280;63771;52.580;9.734;2023-03-23T13:50:54;100088.63;;;12.34;80.80
75192;BME280;63771;52.580;9.734;2023-03-23T13:53:42;100084.78;;;12.40;80.75
75192;BME280;63771;52.580;9.734;2023-03-23T13:56:35;100082.03;;;12.50;79.08
75192;BME280;63771;52.580;9.734;2023-03-23T13:59:13;100073.78;;;12.54;78.86
75192;BME280;63771;52.580;9.734;2023-03-23T14:01:40;100068.06;;;12.59;79.47
75192;BME280;63771;52.580;9.734;2023-03-23T14:04:11;100073.34;;;12.62;77.54
75192;BME280;63771;52.580;9.734;2023-03-23T14:06:39;100073.44;;;12.63;77.16
75192;BME280;63771;52.580;9.734;2023-03-23T14:09:10;100084.97;;;12.70;76.91
75192;BME280;63771;52.580;9.734;2023-03-23T14:12:04;100087.41;;;12.68;76.84
75192;BME280;63771;52.580;9.734;2023-03-23T14:14:51;100092.75;;;12.71;76.06
75192;BME280;63771;52.580;9.734;2023-03-23T14:17:25;100072.47;;;12.74;76.48
75192;BME280;63771;52.580;9.734;2023-03-23T14:19:53;100066.72;;;12.78;76.71
75192;BME280;63771;52.580;9.734;2023-03-23T14:22:46;100060.13;;;12.82;77.67